Portada
METAR-TAF:

METAR-TAF

Aeropuertos :

Aeropuerto de Muş

Muş, Turquía

latitud: 38-45N, longitud: 041-40E, altitud: 1266 m

Observación

El informe se hizo hace 46 minutos, a las 12:50 UTC
Viento 6 kt del oeste-noroeste, variando entre oeste y norte-noroeste
Temperatura 6°C
Humedad 61%
Presión 1021 hPa
Visibilidad 10 km o más
Nubes dispersas a una altura de 3500 ft
Cielo nuboso a una altura de 7000 ft

METAR: LTCK 061250Z 29006KT 260V330 9999 SCT035 BKN070 06/M01 Q1021

Hora: 16:36 (13:36 UTC)

Pronóstico

El informe se hizo hace 2 horas y 56 minutos, a las 10:40 UTC
Pronóstico válido del 06 a las 12 UTC al 06 a las 21 UTC
Viento 2 kt con dirección variable
Visibilidad 10 km o más
Nubes dispersas a una altura de 3500 ft
Cielo nuboso a una altura de 7000 ft

TAF: LTCK 061040Z 0612/0621 VRB02KT 9999 SCT035 BKN070

Observaciones y pronósticos meteorológicos de más de 4000 aeropuertos (mensajes METAR y TAF).

Los puntos amarillos y rojos representan las estaciones disponibles.

Ponga el ratón en el punto deseado para ver el nombre de la estación.

Haga clic para ver las observaciones y los pronósticos meteorológicos.

Para cambiar el mapa : haga clic en los botones verdes con una cruz de color negro para hacer un zoom, en el botón verde con un guión para alejar o en las flechas verdes para mapas adyacentes.


METAR-TAF: